createdAt,value
2022-08-05T00:01:00.935Z,39.01
2022-08-05T00:06:29.053Z,39.37
2022-08-05T00:11:35.205Z,39.20
2022-08-05T00:16:52.793Z,38.90
2022-08-05T00:21:55.213Z,38.79
2022-08-05T00:26:56.739Z,39.18
2022-08-05T00:32:12.634Z,39.14
2022-08-05T00:37:16.116Z,38.86
2022-08-05T00:42:32.095Z,39.03
2022-08-05T00:47:56.870Z,39.03
2022-08-05T00:52:55.487Z,38.77
2022-08-05T00:57:59.076Z,39.10
2022-08-05T01:03:00.896Z,38.87
2022-08-05T01:08:40.291Z,38.96
2022-08-05T01:13:57.795Z,39.13
2022-08-05T01:19:15.782Z,38.72
2022-08-05T01:24:41.599Z,39.14
2022-08-05T01:29:46.490Z,39.06
2022-08-05T01:34:51.324Z,39.06
2022-08-05T01:39:59.045Z,39.29
2022-08-05T01:45:02.366Z,38.97
2022-08-05T01:50:05.970Z,38.80
2022-08-05T01:55:09.368Z,38.69
2022-08-05T02:00:11.891Z,39.16
2022-08-05T02:05:13.733Z,39.35
2022-08-05T02:10:17.426Z,38.90
2022-08-05T02:15:24.960Z,38.93
2022-08-05T02:20:49.621Z,39.10
2022-08-05T02:25:51.697Z,38.86
2022-08-05T02:30:56.811Z,39.00
2022-08-05T02:36:01.105Z,39.10
2022-08-05T02:41:06.410Z,38.78
2022-08-05T02:46:18.460Z,38.93
2022-08-05T02:52:02.708Z,39.00
2022-08-05T02:56:50.353Z,38.72
2022-08-05T03:01:52.150Z,39.09
2022-08-05T03:06:59.549Z,39.02
2022-08-05T03:12:01.855Z,39.13
2022-08-05T03:17:07.338Z,40.30
2022-08-05T03:22:16.656Z,39.70
2022-08-05T03:27:20.660Z,39.78
2022-08-05T03:32:22.162Z,39.76
2022-08-05T03:37:40.961Z,39.40
2022-08-05T03:42:52.458Z,39.27
2022-08-05T03:47:56.878Z,39.53
2022-08-05T03:55:51.581Z,39.29
2022-08-05T03:58:29.362Z,39.00
2022-08-05T04:03:35.750Z,39.31
2022-08-05T04:08:39.638Z,39.25
2022-08-05T04:13:49.756Z,39.23
2022-08-05T04:18:54.648Z,39.16
2022-08-05T04:24:06.369Z,39.16
2022-08-05T04:29:10.286Z,39.41
2022-08-05T04:34:31.383Z,39.15
2022-08-05T04:39:33.429Z,38.92
2022-08-05T04:44:37.013Z,38.96
2022-08-05T04:50:01.659Z,39.25
2022-08-05T04:55:02.375Z,38.98
2022-08-05T05:00:16.406Z,39.09
2022-08-05T05:05:28.335Z,38.88
2022-08-05T05:10:33.281Z,38.70
2022-08-05T05:15:56.253Z,38.99
2022-08-05T05:20:56.534Z,38.92
2022-08-05T05:25:59.960Z,39.02
2022-08-05T05:31:02.197Z,39.32
2022-08-05T05:36:07.278Z,39.07
2022-08-05T05:41:08.684Z,38.93
2022-08-05T05:46:17.564Z,39.03
2022-08-05T05:51:24.558Z,39.19
2022-08-05T05:56:32.306Z,38.74
2022-08-05T06:01:39.727Z,39.28
2022-08-05T06:06:47.493Z,39.24
2022-08-05T06:11:59.126Z,39.41
2022-08-05T06:17:02.001Z,39.16
2022-08-05T06:22:27.102Z,39.33
2022-08-05T06:28:12.248Z,39.52
2022-08-05T06:32:50.843Z,39.68
2022-08-05T06:37:57.778Z,39.22
2022-08-05T06:43:00.408Z,39.29
2022-08-05T06:48:44.336Z,39.06
2022-08-05T06:53:28.505Z,39.32
2022-08-05T06:58:36.223Z,39.04
2022-08-05T07:03:38.209Z,38.41
2022-08-05T07:08:39.680Z,38.25
2022-08-05T07:14:02.211Z,38.72
2022-08-05T07:19:04.035Z,38.39
2022-08-05T07:24:05.669Z,38.76
2022-08-05T07:29:12.909Z,38.97
2022-08-05T07:34:14.335Z,39.20
2022-08-05T07:39:50.369Z,39.72
2022-08-05T07:44:44.177Z,39.65
2022-08-05T07:49:54.572Z,39.86
2022-08-05T07:54:56.229Z,40.23
2022-08-05T07:59:57.641Z,40.12
2022-08-05T08:04:59.243Z,40.69
2022-08-05T08:10:01.031Z,40.82
2022-08-05T08:15:03.649Z,41.07
2022-08-05T08:20:23.402Z,41.30
2022-08-05T08:26:00.826Z,41.56
2022-08-05T08:30:52.416Z,41.62
2022-08-05T08:36:07.814Z,41.73
2022-08-05T08:41:15.274Z,42.02
2022-08-05T08:46:19.449Z,41.99
2022-08-05T08:52:01.875Z,42.43
2022-08-05T08:56:47.812Z,42.00
2022-08-05T09:01:57.575Z,42.23
2022-08-05T09:07:02.631Z,42.19
2022-08-05T09:12:30.231Z,42.18
2022-08-05T09:17:40.698Z,42.09
2022-08-05T09:23:19.205Z,42.34
2022-08-05T09:28:31.876Z,42.30
2022-08-05T09:33:50.907Z,42.36
2022-08-05T09:38:56.690Z,42.79
2022-08-05T09:43:58.746Z,42.84
2022-08-05T09:49:07.368Z,42.59
2022-08-05T09:54:29.501Z,42.69
2022-08-05T09:59:35.082Z,42.73
2022-08-05T10:04:40.836Z,42.99
2022-08-05T10:10:00.280Z,43.08
2022-08-05T10:15:25.583Z,43.22
2022-08-05T10:20:27.376Z,43.04
2022-08-05T10:25:28.905Z,42.62
2022-08-05T10:31:20.448Z,42.92
2022-08-05T10:36:00.000Z,42.72
2022-08-05T10:41:23.251Z,42.92
2022-08-05T10:46:25.129Z,42.79
2022-08-05T10:51:29.325Z,42.99
2022-08-05T10:56:36.465Z,42.81
2022-08-05T11:01:55.068Z,43.10
2022-08-05T11:07:04.728Z,43.40
2022-08-05T11:12:27.117Z,42.82
2022-08-05T11:17:58.650Z,42.95
2022-08-05T11:22:58.063Z,43.07
2022-08-05T11:28:09.310Z,43.45
2022-08-05T11:33:44.060Z,43.36
2022-08-05T11:38:51.734Z,43.33
2022-08-05T11:44:06.292Z,42.84
2022-08-05T11:49:13.265Z,43.20
2022-08-05T11:54:20.837Z,43.00
2022-08-05T11:59:25.561Z,43.41
2022-08-05T12:04:38.233Z,42.89
2022-08-05T12:09:53.503Z,43.21
2022-08-05T12:14:55.273Z,43.21
2022-08-05T12:20:17.024Z,43.35
2022-08-05T12:25:20.097Z,43.04
2022-08-05T12:30:32.091Z,42.98
2022-08-05T12:35:39.739Z,43.13
2022-08-05T12:40:43.523Z,42.81
2022-08-05T12:45:55.951Z,42.63
2022-08-05T12:52:10.255Z,42.99
2022-08-05T12:56:41.733Z,42.78
2022-08-05T13:02:03.464Z,42.59
2022-08-05T13:07:16.073Z,42.49
2022-08-05T13:12:19.713Z,42.78
2022-08-05T13:17:31.949Z,42.80
2022-08-05T13:22:46.667Z,42.63
2022-08-05T13:27:50.616Z,42.72
2022-08-05T13:32:52.545Z,42.43
2022-08-05T13:37:57.865Z,42.36
2022-08-05T13:43:06.497Z,42.07
2022-08-05T13:49:00.292Z,42.38
2022-08-05T13:53:35.147Z,42.10
2022-08-05T13:58:53.144Z,41.40
2022-08-05T14:04:13.818Z,41.25
2022-08-05T14:09:16.173Z,41.52
2022-08-05T14:14:23.315Z,41.16
2022-08-05T14:19:27.534Z,41.36
2022-08-05T14:24:30.556Z,41.06
2022-08-05T14:29:32.665Z,40.73
2022-08-05T14:34:35.830Z,41.05
2022-08-05T14:39:49.266Z,40.91
2022-08-05T14:44:51.825Z,41.06
2022-08-05T14:49:59.157Z,41.02
2022-08-05T14:55:02.157Z,40.62
2022-08-05T15:00:04.086Z,40.83
2022-08-05T15:05:13.175Z,40.49
2022-08-05T15:10:14.861Z,40.48
2022-08-05T15:15:16.622Z,40.62
2022-08-05T15:20:19.314Z,40.47
2022-08-05T15:25:40.969Z,40.67
2022-08-05T15:30:47.689Z,40.70
2022-08-05T15:35:54.538Z,40.77
2022-08-05T15:41:23.261Z,40.76
2022-08-05T15:46:20.444Z,40.36
2022-08-05T15:52:09.950Z,40.52
2022-08-05T15:56:47.697Z,40.33
2022-08-05T16:01:52.247Z,40.40
2022-08-05T16:06:55.788Z,40.33
2022-08-05T16:11:57.469Z,40.60
2022-08-05T16:16:58.993Z,40.62
2022-08-05T16:22:03.414Z,40.71
2022-08-05T16:27:05.130Z,40.63
2022-08-05T16:32:09.751Z,40.79
2022-08-05T16:38:03.236Z,40.25
2022-08-05T16:42:34.411Z,40.90
2022-08-05T16:47:48.446Z,41.27
2022-08-05T16:52:57.044Z,41.08
2022-08-05T16:58:01.356Z,40.95
2022-08-05T17:03:15.237Z,40.72
2022-08-05T17:08:36.134Z,41.18
2022-08-05T17:13:44.436Z,40.97
2022-08-05T17:18:46.526Z,41.08
2022-08-05T17:24:04.327Z,41.63
2022-08-05T17:29:11.438Z,41.44
2022-08-05T17:34:12.854Z,41.57
2022-08-05T17:39:24.509Z,41.51
2022-08-05T17:44:35.921Z,41.15
2022-08-05T17:49:51.982Z,41.54
2022-08-05T17:54:58.932Z,40.98
2022-08-05T18:00:05.418Z,41.50
2022-08-05T18:05:08.182Z,41.66
2022-08-05T18:10:11.318Z,41.85
2022-08-05T18:15:13.057Z,42.04
2022-08-05T18:20:15.388Z,42.50
2022-08-05T18:25:17.557Z,42.60
2022-08-05T18:30:19.652Z,42.52
2022-08-05T18:35:21.125Z,42.80
2022-08-05T18:41:56.779Z,42.70
2022-08-05T18:46:04.258Z,42.88
2022-08-05T18:52:04.929Z,43.55
2022-08-05T18:56:51.221Z,43.46
2022-08-05T19:01:56.983Z,44.21
2022-08-05T19:06:59.977Z,44.33
2022-08-05T19:12:01.759Z,44.86
2022-08-05T19:17:03.188Z,45.00
2022-08-05T19:22:09.183Z,45.10
2022-08-05T19:27:12.181Z,45.31
2022-08-05T19:32:14.889Z,45.14
2022-08-05T19:37:17.200Z,45.81
2022-08-05T19:42:19.057Z,45.96
2022-08-05T19:47:37.630Z,45.72
2022-08-05T19:52:39.413Z,45.55
2022-08-05T19:57:49.216Z,45.74
2022-08-05T20:03:08.463Z,45.92
2022-08-05T20:08:10.749Z,45.54
2022-08-05T20:13:12.184Z,45.88
2022-08-05T20:18:33.156Z,45.55
2022-08-05T20:23:40.384Z,45.60
2022-08-05T20:28:55.838Z,45.78
2022-08-05T20:33:57.599Z,45.27
2022-08-05T20:38:59.162Z,45.00
2022-08-05T20:44:17.888Z,44.82
2022-08-05T20:49:24.437Z,44.60
2022-08-05T20:54:43.127Z,44.17
2022-08-05T21:00:19.783Z,43.63
2022-08-05T21:05:11.186Z,43.39
2022-08-05T21:10:13.792Z,42.64
2022-08-05T21:15:16.170Z,42.98
2022-08-05T21:20:33.168Z,42.51
2022-08-05T21:25:35.158Z,42.50
2022-08-05T21:30:38.101Z,42.13
2022-08-05T21:35:55.617Z,41.97
2022-08-05T21:41:00.493Z,41.60
2022-08-05T21:46:01.905Z,41.79
2022-08-05T21:52:16.257Z,41.41
2022-08-05T21:56:27.040Z,41.34
2022-08-05T22:01:28.606Z,40.91
2022-08-05T22:06:39.657Z,40.74
2022-08-05T22:11:41.289Z,40.32
2022-08-05T22:16:51.301Z,40.55
2022-08-05T22:21:54.261Z,40.29
2022-08-05T22:27:17.278Z,40.30
2022-08-05T22:32:19.065Z,40.16
2022-08-05T22:37:20.826Z,39.54
2022-08-05T22:42:26.085Z,39.64
2022-08-05T22:47:30.674Z,39.51
2022-08-05T22:52:34.303Z,39.64
2022-08-05T22:57:36.453Z,39.63
2022-08-05T23:02:46.494Z,39.44
2022-08-05T23:07:49.664Z,40.03
2022-08-05T23:12:54.679Z,39.57
2022-08-05T23:18:01.671Z,40.08
2022-08-05T23:23:08.062Z,40.42
2022-08-05T23:28:10.158Z,40.06
2022-08-05T23:33:16.022Z,40.36
2022-08-05T23:38:20.461Z,40.32
2022-08-05T23:43:24.827Z,40.55
2022-08-05T23:48:38.994Z,40.81
2022-08-05T23:53:47.047Z,40.42
2022-08-05T23:58:48.576Z,40.82
